Portada
METAR-TAF:

METAR-TAF

Aeroports :

Nakhon Phanom, Tailàndia

latitud: 17-23-02N, longitud: 104-38-35E, altitud: 179 m

Observació

L'informe es va fer fa 1 hora i 51 minuts, a les 13:00 UTC
Vent 5 kt del Est
Temperatura 18°C
Humitat 56%
Pressió 1018 hPa
Visibilitat: 8000 m

METAR: VTUW 091300Z 09005KT 8000 NSC 18/09 Q1018 NOSIG

Hora: 21:51 (14:51 UTC)

Pronòstic

L'informe es va fer fa 3 hores i 51 minuts, a les 11:00 UTC
Pronòstic vàlid del 09 a les 12 UTC al 10 a les 12 UTC
Vent 8 kt del Est
Visibilitat 10 km o més
sense núvols per sota de 1500 mi sense presència de cumulonimbus.
Evolucionant progressivament
l' 09 a les 21 UTC al 09 a les 23 UTC
Vent 2 kt amb direcció variable
Visibilitat: 5000 m
boirina
Evolucionant progressivament
l' 10 a les 02 UTC al 10 a les 04 UTC
Vent 10 kt del Est/Nord-Est
Visibilitat: 9000 m

TAF: VTUW 091100Z 0912/1012 08008KT CAVOK BECMG 0921/0923 VRB02KT 5000 BR NSC BECMG 1002/1004 06010KT 9000 NSW

Observacions i pronòstics meteorològics de més de 4000 aeroports (METAR i TAF).

Les estacions disponibles són els punts grocs i vermells al mapa.

Posi el ratolí al punt desitjat per veure el nom de l'estació.

Feu clic per veure les observacions i els pronòstics meteorològics.

Per canviar el mapa: feu clic els botons verds amb una creu de color negre per apropar; al botó verd amb un guió per allunyar la imatge; o en les fletxes verdes per a mapes adjacents.


METAR-TAF: